Time;durP1;ratioP1;P1;durP2;ratioP2;P2;SDS_P1;SDS_P2;PMS_P1;PMS_P2;Temp;Humidity;BMP_temperature;BMP_pressure;BME280_temperature;BME280_humidity;BME280_pressure;Samples;Min_cycle;Max_cycle;Signal;HPM_P1;HPM_P2
2022/07/20 00:01:04;;;;;;;;;;;;;;;19.02;63.10;101401.31;5110966;28;20031;-75
2022/07/20 00:03:31;;;;;;;;;;;;;;;19.00;63.24;101404.22;5110241;28;19911;-77
2022/07/20 00:05:56;;;;;;;;;;;;;;;19.01;62.99;101402.34;5105198;28;19965;-78
2022/07/20 00:11:20;;;;;;;;;;;;;;;18.93;63.14;101397.88;5110562;28;19980;-78
2022/07/20 00:13:48;;;;;;;;;;;;;;;18.85;63.32;101400.78;5109909;28;19915;-77
2022/07/20 00:16:13;;;;;;;;;;;;;;;18.81;63.50;101394.03;5109293;28;19924;-77
2022/07/20 00:18:38;;;;;;;;;;;;;;;18.82;63.65;101395.69;5105130;28;20380;-78
2022/07/20 00:21:04;;;;;;;;;;;;;;;18.79;63.53;101396.09;5108101;28;20424;-76
2022/07/20 00:23:29;;;;;;;;;;;;;;;18.76;63.49;101398.19;5104327;28;19915;-77
2022/07/20 00:25:55;;;;;;;;;;;;;;;18.73;63.33;101390.38;5110494;28;19938;-78
2022/07/20 00:28:20;;;;;;;;;;;;;;;18.64;64.21;101388.81;5110850;28;20260;-77
2022/07/20 00:30:47;;;;;;;;;;;;;;;18.47;64.69;101391.00;5108956;28;20410;-78
2022/07/20 00:33:12;;;;;;;;;;;;;;;18.46;64.53;101383.84;5109532;28;19932;-76
2022/07/20 00:35:38;;;;;;;;;;;;;;;18.40;64.71;101386.50;5111315;28;19915;-77
2022/07/20 00:38:03;;;;;;;;;;;;;;;18.27;65.42;101377.19;5109401;28;19927;-78
2022/07/20 00:40:29;;;;;;;;;;;;;;;18.32;64.85;101384.75;5110187;28;19994;-80
2022/07/20 00:42:55;;;;;;;;;;;;;;;18.38;64.65;101384.00;5084758;28;20048;-78
2022/07/20 00:45:20;;;;;;;;;;;;;;;18.18;65.39;101381.06;5109992;28;20272;-77
2022/07/20 00:47:47;;;;;;;;;;;;;;;18.25;65.40;101375.69;5108908;28;20406;-77
2022/07/20 00:50:13;;;;;;;;;;;;;;;18.29;65.06;101377.00;5108548;28;19964;-77
2022/07/20 00:52:38;;;;;;;;;;;;;;;18.31;64.99;101372.19;5110287;28;19915;-78
2022/07/20 00:55:04;;;;;;;;;;;;;;;18.21;65.17;101372.50;5110352;28;19915;-77
2022/07/20 00:57:29;;;;;;;;;;;;;;;18.12;65.75;101374.53;5108704;28;19915;-78
2022/07/20 00:59:56;;;;;;;;;;;;;;;18.19;65.67;101374.59;5107871;28;19972;-78
2022/07/20 01:02:21;;;;;;;;;;;;;;;18.01;66.22;101376.91;5109595;28;19919;-80
2022/07/20 01:04:46;;;;;;;;;;;;;;;18.02;66.45;101368.53;5108743;28;19924;-79
2022/07/20 01:07:12;;;;;;;;;;;;;;;17.96;66.76;101373.91;5110813;28;20002;-78
2022/07/20 01:09:38;;;;;;;;;;;;;;;17.98;67.09;101371.84;5108221;28;20367;-77
2022/07/20 01:12:04;;;;;;;;;;;;;;;18.03;66.58;101372.13;5109870;28;19916;-77
2022/07/20 01:14:31;;;;;;;;;;;;;;;17.94;66.81;101360.50;5127858;28;19959;-78
2022/07/20 01:16:56;;;;;;;;;;;;;;;17.91;67.09;101360.88;5120661;28;19912;-78
2022/07/20 01:19:23;;;;;;;;;;;;;;;17.89;67.13;101358.38;5104718;28;20002;-81
2022/07/20 01:21:48;;;;;;;;;;;;;;;17.96;66.78;101360.28;5097998;28;19923;-78
2022/07/20 01:24:13;;;;;;;;;;;;;;;18.01;66.94;101360.59;5111727;28;19938;-78
2022/07/20 01:26:39;;;;;;;;;;;;;;;18.04;66.76;101365.63;5096501;28;19927;-79
2022/07/20 01:29:06;;;;;;;;;;;;;;;18.02;66.57;101365.81;5130448;28;19919;-76
2022/07/20 01:31:32;;;;;;;;;;;;;;;17.90;67.10;101368.19;5131087;28;19998;-79
2022/07/20 01:33:59;;;;;;;;;;;;;;;17.89;67.00;101363.81;5131300;27;19984;-76
2022/07/20 01:36:24;;;;;;;;;;;;;;;17.97;66.59;101360.13;5135095;27;19927;-76
2022/07/20 01:38:52;;;;;;;;;;;;;;;17.99;66.16;101359.94;5120863;27;19911;-77
2022/07/20 01:41:18;;;;;;;;;;;;;;;17.87;66.63;101359.59;5127861;27;20022;-79
2022/07/20 01:43:43;;;;;;;;;;;;;;;17.93;66.38;101367.84;5116087;27;19926;-78
2022/07/20 01:46:10;;;;;;;;;;;;;;;17.90;66.55;101362.75;5134394;27;19919;-76
2022/07/20 01:48:35;;;;;;;;;;;;;;;17.72;67.23;101363.16;5116599;27;19964;-76
2022/07/20 01:51:01;;;;;;;;;;;;;;;17.79;66.95;101363.22;5135720;27;19919;-77
2022/07/20 01:53:26;;;;;;;;;;;;;;;17.67;67.04;101354.72;5139880;27;20002;-76
2022/07/20 01:55:52;;;;;;;;;;;;;;;17.76;67.13;101358.19;5106315;28;19965;-80
2022/07/20 01:58:17;;;;;;;;;;;;;;;17.79;66.71;101363.22;5129349;27;19984;-77
2022/07/20 02:00:42;;;;;;;;;;;;;;;17.82;66.70;101359.34;5128700;27;19943;-77
2022/07/20 02:03:08;;;;;;;;;;;;;;;17.83;66.93;101359.13;5098762;27;19977;-77
2022/07/20 02:05:35;;;;;;;;;;;;;;;17.72;67.03;101362.31;5131639;27;19931;-79
2022/07/20 02:08:01;;;;;;;;;;;;;;;17.80;66.63;101362.19;5113228;27;19915;-77
2022/07/20 02:10:27;;;;;;;;;;;;;;;17.79;66.57;101363.22;5132871;27;19922;-77
2022/07/20 02:12:53;;;;;;;;;;;;;;;17.76;66.64;101366.31;5126886;27;19970;-77
2022/07/20 02:18:06;;;;;;;;;;;;;;;17.75;66.76;101361.94;5106944;27;19921;-76
2022/07/20 02:20:32;;;;;;;;;;;;;;;17.71;66.54;101366.06;5129719;27;20295;-77
2022/07/20 02:22:57;;;;;;;;;;;;;;;17.76;66.70;101362.78;5134401;27;19919;-77
2022/07/20 02:25:25;;;;;;;;;;;;;;;17.75;66.57;101367.38;5115643;27;19923;-77
2022/07/20 02:27:50;;;;;;;;;;;;;;;17.72;66.66;101371.31;5114780;27;20335;-77
2022/07/20 02:30:15;;;;;;;;;;;;;;;17.55;66.93;101367.13;5133828;27;19961;-77
2022/07/20 02:32:41;;;;;;;;;;;;;;;17.61;66.95;101368.25;5116055;27;19916;-76
2022/07/20 02:35:07;;;;;;;;;;;;;;;17.61;66.56;101373.69;5115184;27;19915;-77
2022/07/20 02:37:33;;;;;;;;;;;;;;;17.61;66.86;101377.25;5133545;27;20295;-77
2022/07/20 02:39:58;;;;;;;;;;;;;;;17.60;66.98;101380.97;5113881;27;19915;-77
2022/07/20 02:42:24;;;;;;;;;;;;;;;17.42;67.43;101373.25;5134171;27;19912;-77
2022/07/20 02:44:49;;;;;;;;;;;;;;;17.45;67.02;101378.28;5114907;27;19938;-77
2022/07/20 02:47:15;;;;;;;;;;;;;;;17.38;67.33;101377.34;5133489;27;20305;-77
2022/07/20 02:49:42;;;;;;;;;;;;;;;17.48;67.14;101386.06;5114969;27;19920;-78
2022/07/20 02:52:07;;;;;;;;;;;;;;;17.39;67.31;101383.63;5122581;27;19915;-77
2022/07/20 02:54:32;;;;;;;;;;;;;;;17.37;66.97;101386.56;5127182;27;19938;-76
2022/07/20 02:56:57;;;;;;;;;;;;;;;17.44;67.23;101381.19;5133510;27;20378;-78
2022/07/20 02:59:23;;;;;;;;;;;;;;;17.45;66.91;101389.16;5132113;27;20009;-78
2022/07/20 03:01:48;;;;;;;;;;;;;;;17.51;66.63;101390.28;5108633;27;19972;-77
2022/07/20 03:04:13;;;;;;;;;;;;;;;17.48;66.44;101388.78;5133416;27;20312;-76
2022/07/20 03:06:39;;;;;;;;;;;;;;;17.52;66.61;101381.94;5114239;27;19911;-76
2022/07/20 03:09:06;;;;;;;;;;;;;;;17.49;66.49;101393.19;5132041;27;19923;-77
2022/07/20 03:11:31;;;;;;;;;;;;;;;17.39;67.07;101389.91;5132762;27;19915;-77
2022/07/20 03:13:56;;;;;;;;;;;;;;;17.43;66.89;101402.09;5096083;27;19971;-77
2022/07/20 03:16:22;;;;;;;;;;;;;;;17.47;66.85;101389.00;5133323;27;19920;-79
2022/07/20 03:18:48;;;;;;;;;;;;;;;17.37;67.04;101396.56;5131421;27;20396;-78
2022/07/20 03:21:13;;;;;;;;;;;;;;;17.47;66.95;101397.97;5133178;27;20286;-77
2022/07/20 03:23:38;;;;;;;;;;;;;;;17.48;66.80;101388.78;5131515;27;19927;-77
2022/07/20 03:26:04;;;;;;;;;;;;;;;17.47;67.17;101403.41;5131042;27;19915;-77
2022/07/20 03:28:29;;;;;;;;;;;;;;;17.57;66.59;101397.69;5117749;27;19930;-78
2022/07/20 03:30:54;;;;;;;;;;;;;;;17.45;67.24;101405.47;5132055;27;19926;-78
2022/07/20 03:33:20;;;;;;;;;;;;;;;17.60;66.59;101404.63;5124051;27;20391;-78
2022/07/20 03:35:46;;;;;;;;;;;;;;;17.61;67.01;101392.72;5129594;27;19916;-77
2022/07/20 03:38:12;;;;;;;;;;;;;;;17.56;67.39;101397.84;5102819;27;19935;-78
2022/07/20 03:40:38;;;;;;;;;;;;;;;17.57;67.81;101402.28;5138155;27;19988;-79
2022/07/20 03:43:03;;;;;;;;;;;;;;;17.71;67.34;101404.97;5132546;27;19916;-78
2022/07/20 03:45:29;;;;;;;;;;;;;;;17.77;67.44;101402.53;5112031;27;19984;-77
2022/07/20 03:47:55;;;;;;;;;;;;;;;17.76;67.47;101404.41;5116941;27;19930;-79
2022/07/20 03:50:20;;;;;;;;;;;;;;;17.73;67.40;101404.78;5105485;28;19916;-79
2022/07/20 03:52:47;;;;;;;;;;;;;;;17.82;67.16;101403.69;5129762;27;19916;-78
2022/07/20 03:55:13;;;;;;;;;;;;;;;17.82;67.32;101403.69;5107799;27;19933;-77
2022/07/20 03:57:39;;;;;;;;;;;;;;;18.00;66.61;101411.41;5106477;27;19922;-77
2022/07/20 04:00:06;;;;;;;;;;;;;;;18.10;66.43;101414.69;5111057;27;20009;-77
2022/07/20 04:02:31;;;;;;;;;;;;;;;18.16;66.17;101412.22;5118795;27;19916;-77
2022/07/20 04:04:57;;;;;;;;;;;;;;;18.14;66.24;101412.41;5127183;27;19922;-77
2022/07/20 04:07:22;;;;;;;;;;;;;;;18.22;65.64;101409.56;5096610;28;20430;-77
2022/07/20 04:09:47;;;;;;;;;;;;;;;18.37;65.63;101420.41;5128037;27;20021;-76
2022/07/20 04:12:16;;;;;;;;;;;;;;;18.48;65.17;101408.16;5131261;27;19919;-77
2022/07/20 04:14:42;;;;;;;;;;;;;;;18.59;64.61;101413.09;5109095;27;20027;-75
2022/07/20 04:17:07;;;;;;;;;;;;;;;18.65;64.31;101416.91;5112108;27;20002;-77
2022/07/20 04:19:36;;;;;;;;;;;;;;;18.83;64.06;101421.91;5105733;27;19950;-78
2022/07/20 04:22:04;;;;;;;;;;;;;;;19.03;63.19;101414.72;5111284;27;19919;-77
2022/07/20 04:24:30;;;;;;;;;;;;;;;19.03;62.95;101417.44;5113306;27;19919;-77
2022/07/20 04:26:55;;;;;;;;;;;;;;;19.20;62.30;101415.28;5112676;27;19912;-76
2022/07/20 04:29:23;;;;;;;;;;;;;;;19.18;62.03;101420.91;5130766;27;20291;-79
2022/07/20 04:31:50;;;;;;;;;;;;;;;19.25;61.81;101415.50;5131568;27;20447;-77
2022/07/20 04:34:16;;;;;;;;;;;;;;;19.36;60.94;101419.53;5112379;27;20287;-76
2022/07/20 04:36:43;;;;;;;;;;;;;;;19.68;59.72;101418.06;5127245;27;19931;-76
2022/07/20 04:39:10;;;;;;;;;;;;;;;19.92;59.03;101419.44;5110462;27;19923;-78
2022/07/20 04:41:36;;;;;;;;;;;;;;;20.14;58.54;101422.03;5127447;27;20011;-76
2022/07/20 04:44:01;;;;;;;;;;;;;;;20.37;58.01;101427.09;5130789;27;19954;-77
2022/07/20 04:46:28;;;;;;;;;;;;;;;20.63;57.12;101416.28;5127694;27;20019;-78
2022/07/20 04:48:58;;;;;;;;;;;;;;;20.81;56.35;101418.38;5112072;27;19923;-77
2022/07/20 04:51:23;;;;;;;;;;;;;;;21.07;54.97;101419.38;5109265;28;19966;-77
2022/07/20 04:53:49;;;;;;;;;;;;;;;21.42;54.38;101419.16;5104670;27;19958;-76
2022/07/20 04:56:18;;;;;;;;;;;;;;;21.70;53.80;101416.97;5127221;27;19966;-77
2022/07/20 04:58:50;;;;;;;;;;;;;;;21.87;53.42;101416.50;5111263;27;19926;-78
2022/07/20 05:01:15;;;;;;;;;;;;;;;22.09;52.74;101415.09;5130176;27;19994;-79
2022/07/20 05:03:41;;;;;;;;;;;;;;;22.24;52.10;101416.72;5130320;27;20022;-78
2022/07/20 05:06:07;;;;;;;;;;;;;;;22.45;51.04;101412.78;5107928;28;20435;-79
2022/07/20 05:08:34;;;;;;;;;;;;;;;22.73;49.93;101415.09;5129987;27;19948;-80
2022/07/20 05:10:59;;;;;;;;;;;;;;;22.89;49.14;101420.03;5111521;27;20002;-79
2022/07/20 05:13:25;;;;;;;;;;;;;;;23.04;48.58;101421.63;5084262;28;20405;-79
2022/07/20 05:15:50;;;;;;;;;;;;;;;23.31;48.28;101423.03;5109711;28;20425;-79
2022/07/20 05:18:15;;;;;;;;;;;;;;;23.55;47.24;101420.47;5108902;28;20375;-79
2022/07/20 05:20:41;;;;;;;;;;;;;;;23.85;46.62;101427.97;5110442;28;19920;-80
2022/07/20 05:23:09;;;;;;;;;;;;;;;24.13;46.42;101436.44;5110712;28;19911;-80
2022/07/20 05:25:38;;;;;;;;;;;;;;;24.30;46.23;101436.63;5103638;28;20041;-79
2022/07/20 05:28:04;;;;;;;;;;;;;;;24.41;45.64;101433.06;5110856;28;19911;-79
2022/07/20 05:30:29;;;;;;;;;;;;;;;24.66;45.48;101439.53;5090198;28;19969;-80
2022/07/20 05:32:54;;;;;;;;;;;;;;;24.90;45.19;101441.22;5103784;28;20007;-77
2022/07/20 05:35:20;;;;;;;;;;;;;;;25.14;44.38;101438.47;5093078;28;20436;-79
2022/07/20 05:37:46;;;;;;;;;;;;;;;25.29;43.72;101433.38;5101680;28;19923;-79
2022/07/20 05:40:13;;;;;;;;;;;;;;;25.37;43.71;101430.25;5109588;28;19931;-79
2022/07/20 05:42:38;;;;;;;;;;;;;;;25.62;43.24;101437.41;5096705;28;20691;-77
2022/07/20 05:45:04;;;;;;;;;;;;;;;25.80;42.61;101437.25;5104593;28;19916;-78
2022/07/20 05:47:29;;;;;;;;;;;;;;;25.98;41.88;101440.91;5103137;28;19922;-78
2022/07/20 05:49:56;;;;;;;;;;;;;;;26.22;42.04;101441.66;5103627;28;19919;-76
2022/07/20 05:52:24;;;;;;;;;;;;;;;26.42;41.31;101435.69;5108583;28;20029;-76
2022/07/20 05:54:49;;;;;;;;;;;;;;;26.62;40.75;101440.75;5109683;28;19918;-76
2022/07/20 05:57:14;;;;;;;;;;;;;;;26.78;40.48;101441.84;5109150;28;20006;-76
2022/07/20 05:59:43;;;;;;;;;;;;;;;26.95;40.25;101437.19;5105638;28;19924;-76
2022/07/20 06:02:09;;;;;;;;;;;;;;;27.06;39.38;101430.72;5108498;28;19927;-77
2022/07/20 06:04:35;;;;;;;;;;;;;;;27.06;39.17;101441.75;5103084;28;20324;-76
2022/07/20 06:07:01;;;;;;;;;;;;;;;27.02;39.15;101429.56;5105351;28;19914;-78
2022/07/20 06:09:27;;;;;;;;;;;;;;;27.25;38.71;101434.06;5102333;28;19936;-76
2022/07/20 06:11:53;;;;;;;;;;;;;;;27.18;38.15;101430.63;5109053;28;19916;-77
2022/07/20 06:14:18;;;;;;;;;;;;;;;27.28;38.95;101422.53;5119943;28;19996;-77
2022/07/20 06:16:43;;;;;;;;;;;;;;;27.12;39.25;101434.41;5127750;28;19950;-76
2022/07/20 06:19:09;;;;;;;;;;;;;;;27.30;38.80;101425.88;5090399;28;19957;-78
2022/07/20 06:21:34;;;;;;;;;;;;;;;27.53;38.90;101419.31;5109948;27;20591;-77
2022/07/20 06:23:59;;;;;;;;;;;;;;;27.83;37.88;101418.03;5113017;27;20431;-76
2022/07/20 06:26:25;;;;;;;;;;;;;;;27.86;36.13;101423.06;5097388;27;19976;-77
2022/07/20 06:28:51;;;;;;;;;;;;;;;27.95;35.97;101418.72;5128827;27;19927;-76
2022/07/20 06:31:16;;;;;;;;;;;;;;;28.07;35.24;101418.56;5132344;27;19920;-77
2022/07/20 06:33:41;;;;;;;;;;;;;;;28.11;33.76;101422.47;5131635;27;19915;-77
2022/07/20 06:36:08;;;;;;;;;;;;;;;28.07;32.74;101423.25;5108361;27;19916;-79
2022/07/20 06:38:34;;;;;;;;;;;;;;;28.12;31.66;101432.47;5126902;27;19911;-74
2022/07/20 06:41:01;;;;;;;;;;;;;;;27.74;31.64;101425.06;5122029;27;20279;-77
2022/07/20 06:43:27;;;;;;;;;;;;;;;27.62;31.82;101427.94;5126791;27;19919;-77
2022/07/20 06:45:53;;;;;;;;;;;;;;;27.87;32.48;101427.47;5126664;27;20007;-77
2022/07/20 06:48:20;;;;;;;;;;;;;;;28.13;31.72;101427.75;5129135;27;19916;-76
2022/07/20 06:50:45;;;;;;;;;;;;;;;28.14;31.51;101429.41;5109868;27;19915;-77
2022/07/20 06:53:11;;;;;;;;;;;;;;;28.10;31.10;101431.06;5132228;27;20034;-77
2022/07/20 06:55:39;;;;;;;;;;;;;;;27.98;32.39;101432.03;5132130;27;19915;-77
2022/07/20 06:58:04;;;;;;;;;;;;;;;28.24;30.91;101429.53;5132690;27;19919;-79
2022/07/20 07:00:30;;;;;;;;;;;;;;;28.30;30.39;101433.19;5133255;27;20375;-77
2022/07/20 07:02:55;;;;;;;;;;;;;;;28.43;30.78;101430.00;5114798;27;20339;-81
2022/07/20 07:05:20;;;;;;;;;;;;;;;28.28;29.97;101427.91;5133534;27;19915;-81
2022/07/20 07:07:46;;;;;;;;;;;;;;;28.54;29.97;101429.03;5133881;27;19911;-78
2022/07/20 07:10:11;;;;;;;;;;;;;;;28.70;29.65;101423.63;5113919;27;19924;-78
2022/07/20 07:12:36;;;;;;;;;;;;;;;28.56;31.72;101431.53;5114764;27;19943;-78
2022/07/20 07:15:02;;;;;;;;;;;;;;;28.08;32.10;101431.31;5131891;27;19915;-79
2022/07/20 07:17:27;;;;;;;;;;;;;;;27.98;33.28;101423.75;5133018;27;20308;-79
2022/07/20 07:19:53;;;;;;;;;;;;;;;28.27;30.65;101430.94;5097348;27;19915;-78
2022/07/20 07:22:18;;;;;;;;;;;;;;;28.51;29.82;101426.78;5134011;27;19915;-76
2022/07/20 07:24:44;;;;;;;;;;;;;;;28.66;29.45;101428.88;5132977;27;19915;-79
2022/07/20 07:27:09;;;;;;;;;;;;;;;28.77;29.42;101422.28;5133386;27;20350;-77
2022/07/20 07:29:35;;;;;;;;;;;;;;;28.94;31.33;101422.19;5132583;27;20411;-78
2022/07/20 07:32:00;;;;;;;;;;;;;;;28.83;32.01;101424.00;5132576;27;19911;-79
2022/07/20 07:34:26;;;;;;;;;;;;;;;28.62;32.77;101430.50;5132793;27;19915;-78
2022/07/20 07:36:51;;;;;;;;;;;;;;;28.51;33.01;101428.72;5132956;27;19918;-78
2022/07/20 07:39:16;;;;;;;;;;;;;;;28.59;33.68;101415.25;5096802;27;19977;-79
2022/07/20 07:41:42;;;;;;;;;;;;;;;28.62;33.01;101424.94;5132755;27;19911;-79
2022/07/20 07:44:07;;;;;;;;;;;;;;;28.72;33.49;101419.50;5132489;27;19969;-77
2022/07/20 07:46:32;;;;;;;;;;;;;;;28.72;34.09;101419.50;5114343;27;20254;-78
2022/07/20 07:48:58;;;;;;;;;;;;;;;29.00;33.87;101434.94;5132172;27;20387;-78
2022/07/20 07:51:23;;;;;;;;;;;;;;;29.14;32.37;101415.97;5114234;27;20306;-78
2022/07/20 07:53:51;;;;;;;;;;;;;;;29.03;31.05;101425.25;5114062;27;19915;-77
2022/07/20 07:56:16;;;;;;;;;;;;;;;28.91;31.97;101421.84;5129502;27;19951;-79
2022/07/20 07:58:42;;;;;;;;;;;;;;;29.16;31.49;101412.94;5104442;27;20089;-76
2022/07/20 08:01:07;;;;;;;;;;;;;;;29.47;30.89;101422.22;5110140;27;19915;-76
2022/07/20 08:03:32;;;;;;;;;;;;;;;29.48;32.31;101420.28;5117963;27;20383;-76
2022/07/20 08:05:58;;;;;;;;;;;;;;;28.99;32.06;101413.06;5126920;27;19916;-77
2022/07/20 08:08:25;;;;;;;;;;;;;;;29.16;31.62;101413.75;5104694;27;20308;-77
2022/07/20 08:10:50;;;;;;;;;;;;;;;29.65;28.90;101416.22;5126739;27;20023;-82
2022/07/20 08:13:16;;;;;;;;;;;;;;;29.95;26.72;101414.72;5125795;27;20063;-77
2022/07/20 08:15:45;;;;;;;;;;;;;;;30.09;26.61;101415.84;5104224;28;19923;-79
2022/07/20 08:18:11;;;;;;;;;;;;;;;30.28;25.44;101410.66;5123033;27;19916;-79
2022/07/20 08:20:37;;;;;;;;;;;;;;;30.45;25.91;101409.56;5125424;27;19922;-79
2022/07/20 08:23:07;;;;;;;;;;;;;;;30.99;25.34;101413.72;5126216;27;19920;-80
2022/07/20 08:25:32;;;;;;;;;;;;;;;31.25;24.63;101415.31;5110282;27;20363;-80
2022/07/20 08:28:08;;;;;;;;;;;;;;;30.84;26.16;101412.63;5112861;27;19926;-77
2022/07/20 08:30:35;;;;;;;;;;;;;;;31.42;26.15;101409.50;5100074;28;19989;-78
2022/07/20 08:33:00;;;;;;;;;;;;;;;31.09;24.64;101413.69;5104766;27;19962;-77
2022/07/20 08:35:25;;;;;;;;;;;;;;;31.18;24.51;101403.69;5131943;27;20007;-78
2022/07/20 08:37:51;;;;;;;;;;;;;;;31.08;24.76;101404.53;5130830;27;20002;-81
2022/07/20 08:40:20;;;;;;;;;;;;;;;31.36;25.97;101402.25;5106912;27;19995;-77
2022/07/20 08:42:46;;;;;;;;;;;;;;;31.25;25.15;101395.88;5105256;28;20395;-78
2022/07/20 08:45:14;;;;;;;;;;;;;;;31.41;25.37;101401.44;5091426;27;19915;-79
2022/07/20 08:47:39;;;;;;;;;;;;;;;32.10;24.49;101392.22;5123285;27;19959;-78
2022/07/20 08:50:06;;;;;;;;;;;;;;;32.59;23.52;101391.31;5129818;27;19919;-77
2022/07/20 08:52:32;;;;;;;;;;;;;;;32.79;22.99;101392.25;5113377;27;20010;-78
2022/07/20 08:54:57;;;;;;;;;;;;;;;33.39;22.84;101389.13;5095205;27;19942;-77
2022/07/20 08:57:23;;;;;;;;;;;;;;;33.34;23.36;101386.38;5113373;27;20393;-79
2022/07/20 08:59:48;;;;;;;;;;;;;;;33.66;22.43;101390.47;5113028;27;19907;-78
2022/07/20 09:02:13;;;;;;;;;;;;;;;33.81;21.65;101387.47;5130867;27;19915;-77
2022/07/20 09:04:49;;;;;;;;;;;;;;;33.09;21.98;101384.75;5111522;27;19964;-80
2022/07/20 09:07:14;;;;;;;;;;;;;;;32.45;25.88;101381.94;5112028;28;19923;-79
2022/07/20 09:09:39;;;;;;;;;;;;;;;32.42;24.93;101376.94;5111456;27;19923;-78
2022/07/20 09:12:05;;;;;;;;;;;;;;;33.10;25.26;101380.81;5094831;27;20346;-78
2022/07/20 09:14:47;;;;;;;;;;;;;;;33.71;23.63;101368.09;5128991;27;20255;-78
2022/07/20 09:17:16;;;;;;;;;;;;;;;33.99;23.63;101369.91;5128368;28;19933;-78
2022/07/20 09:20:01;;;;;;;;;;;;;;;33.81;23.00;101368.81;5128920;28;19912;-79
2022/07/20 09:22:36;;;;;;;;;;;;;;;33.48;23.84;101358.63;5129714;28;20320;-80
2022/07/20 09:25:05;;;;;;;;;;;;;;;34.53;22.08;101362.09;5110678;28;19915;-80
2022/07/20 09:27:32;;;;;;;;;;;;;;;34.04;23.05;101355.91;5130450;28;19954;-79
2022/07/20 09:30:09;;;;;;;;;;;;;;;34.49;21.55;101352.69;5098333;28;19934;-79
2022/07/20 09:32:48;;;;;;;;;;;;;;;33.69;24.41;101346.09;5110510;28;19924;-79
2022/07/20 09:35:13;;;;;;;;;;;;;;;34.75;23.75;101353.09;5126582;28;19932;-78
2022/07/20 09:37:38;;;;;;;;;;;;;;;34.44;23.13;101352.75;5129765;28;19918;-78
2022/07/20 09:40:04;;;;;;;;;;;;;;;35.71;21.99;101345.88;5129902;28;19937;-76
2022/07/20 09:42:39;;;;;;;;;;;;;;;36.55;21.61;101341.59;5139823;28;19979;-77
2022/07/20 09:45:17;;;;;;;;;;;;;;;36.58;21.61;101338.19;5112378;28;19915;-79
2022/07/20 09:47:59;;;;;;;;;;;;;;;36.55;19.21;101338.81;5112368;28;19998;-78
2022/07/20 09:50:29;;;;;;;;;;;;;;;36.85;19.96;101336.31;5107978;28;19998;-79
2022/07/20 09:52:54;;;;;;;;;;;;;;;37.65;18.75;101325.03;5111947;28;19911;-79
2022/07/20 09:55:20;;;;;;;;;;;;;;;37.25;17.94;101325.13;5129539;27;20107;-79
2022/07/20 09:57:45;;;;;;;;;;;;;;;38.06;18.51;101315.34;5098708;27;20006;-80
2022/07/20 10:00:11;;;;;;;;;;;;;;;38.10;18.37;101321.94;5134537;27;19983;-78
2022/07/20 10:02:36;;;;;;;;;;;;;;;37.88;19.21;101314.50;5102448;27;19915;-78
2022/07/20 10:05:05;;;;;;;;;;;;;;;38.48;19.44;101326.84;5113992;27;19916;-80
2022/07/20 10:07:30;;;;;;;;;;;;;;;39.70;18.13;101317.81;5120065;27;19911;-80
2022/07/20 10:09:56;;;;;;;;;;;;;;;40.38;18.06;101323.19;5111418;27;19930;-80
2022/07/20 10:12:22;;;;;;;;;;;;;;;40.48;17.71;101317.94;5112999;27;19911;-79
2022/07/20 10:14:49;;;;;;;;;;;;;;;39.88;17.97;101310.91;5095634;27;19915;-80
2022/07/20 10:17:17;;;;;;;;;;;;;;;40.82;17.18;101321.53;5104632;28;19919;-79
2022/07/20 10:19:46;;;;;;;;;;;;;;;40.68;17.22;101312.56;5093532;27;20337;-80
2022/07/20 10:22:12;;;;;;;;;;;;;;;41.08;16.99;101312.72;5114837;27;19915;-79
2022/07/20 10:24:39;;;;;;;;;;;;;;;41.23;17.37;101308.38;5109972;27;19980;-79
2022/07/20 10:27:13;;;;;;;;;;;;;;;40.32;17.35;101302.88;5095443;28;19973;-80
2022/07/20 10:29:41;;;;;;;;;;;;;;;41.25;16.31;101293.94;5134065;27;20027;-79
2022/07/20 10:32:10;;;;;;;;;;;;;;;41.43;16.38;101294.50;5116047;27;19966;-77
2022/07/20 10:34:45;;;;;;;;;;;;;;;41.05;16.43;101290.06;5134206;27;19916;-80
2022/07/20 10:37:29;;;;;;;;;;;;;;;40.54;16.38;101281.91;5116565;27;19921;-77
2022/07/20 10:40:06;;;;;;;;;;;;;;;41.39;15.95;101288.72;5134292;27;19922;-81
2022/07/20 10:42:37;;;;;;;;;;;;;;;41.27;16.10;101285.94;5114581;27;19914;-79
2022/07/20 10:45:23;;;;;;;;;;;;;;;40.38;16.88;101272.50;5097947;27;19919;-79
2022/07/20 10:47:52;;;;;;;;;;;;;;;39.02;17.63;101270.94;5106385;27;19911;-78
2022/07/20 10:50:19;;;;;;;;;;;;;;;38.00;18.90;101267.81;5112903;27;20341;-80
2022/07/20 10:52:46;;;;;;;;;;;;;;;37.21;20.25;101265.28;5113748;28;19961;-79
2022/07/20 10:55:33;;;;;;;;;;;;;;;36.12;22.23;101274.97;5123588;27;20349;-78
2022/07/20 10:57:58;;;;;;;;;;;;;;;35.61;21.77;101273.38;5114641;27;20022;-79
2022/07/20 11:00:28;;;;;;;;;;;;;;;35.89;22.18;101269.34;5132872;27;20010;-80
2022/07/20 11:02:53;;;;;;;;;;;;;;;35.71;20.83;101262.78;5113417;27;19937;-80
2022/07/20 11:05:21;;;;;;;;;;;;;;;35.43;21.09;101267.63;5114216;27;19919;-81
2022/07/20 11:07:47;;;;;;;;;;;;;;;35.61;20.29;101265.00;5112622;27;20387;-79
2022/07/20 11:10:26;;;;;;;;;;;;;;;34.41;21.07;101264.91;5107935;27;19922;-80
2022/07/20 11:12:55;;;;;;;;;;;;;;;34.73;21.85;101256.81;5106993;27;20290;-81
2022/07/20 11:15:43;;;;;;;;;;;;;;;33.57;24.43;101262.09;5130997;27;19915;-81
2022/07/20 11:18:14;;;;;;;;;;;;;;;33.34;25.62;101259.06;5110720;27;19919;-83
2022/07/20 11:21:12;;;;;;;;;;;;;;;32.65;26.36;101260.44;5129875;27;19923;-83
2022/07/20 11:23:40;;;;;;;;;;;;;;;33.03;26.57;101253.00;5085906;27;19916;-83
2022/07/20 11:26:07;;;;;;;;;;;;;;;33.43;26.92;101245.25;5104389;27;19919;-83
2022/07/20 11:28:37;;;;;;;;;;;;;;;33.63;26.23;101253.34;5133536;27;20433;-80
2022/07/20 11:31:03;;;;;;;;;;;;;;;33.04;27.46;101243.59;5129714;27;19912;-83
2022/07/20 11:33:30;;;;;;;;;;;;;;;32.26;29.02;101253.84;5103525;27;19919;-79
2022/07/20 11:35:55;;;;;;;;;;;;;;;32.32;29.38;101258.22;5110846;27;19915;-80
2022/07/20 11:38:22;;;;;;;;;;;;;;;32.36;29.56;101244.59;5126692;27;20298;-84
2022/07/20 11:40:59;;;;;;;;;;;;;;;31.89;29.68;101246.91;5126153;27;19916;-83
2022/07/20 11:43:24;;;;;;;;;;;;;;;31.58;30.46;101237.94;5105842;27;20374;-82
2022/07/20 11:45:51;;;;;;;;;;;;;;;31.30;29.63;101243.13;5131200;27;19919;-82
2022/07/20 11:48:18;;;;;;;;;;;;;;;31.24;30.74;101235.09;5129856;27;19920;-82
2022/07/20 11:50:43;;;;;;;;;;;;;;;31.76;30.75;101237.25;5096271;27;20513;-82
2022/07/20 11:53:28;;;;;;;;;;;;;;;31.96;29.95;101235.50;5113315;27;20398;-80
2022/07/20 11:55:54;;;;;;;;;;;;;;;32.07;29.03;101239.81;5107370;27;19968;-80
2022/07/20 11:58:27;;;;;;;;;;;;;;;31.37;28.86;101230.84;5116958;27;20380;-80
2022/07/20 12:00:57;;;;;;;;;;;;;;;31.01;29.43;101231.84;5131313;27;20023;-81
2022/07/20 12:03:29;;;;;;;;;;;;;;;30.32;31.02;101225.13;5114521;27;20288;-80
2022/07/20 12:05:55;;;;;;;;;;;;;;;30.44;30.82;101216.50;5101816;27;19926;-79
2022/07/20 12:08:22;;;;;;;;;;;;;;;30.20;31.47;101217.03;5102484;28;19912;-80
2022/07/20 12:10:49;;;;;;;;;;;;;;;30.70;29.88;101220.03;5092852;27;19980;-81
2022/07/20 12:13:16;;;;;;;;;;;;;;;30.82;30.28;101223.31;5108645;28;20275;-80
2022/07/20 12:15:50;;;;;;;;;;;;;;;30.69;30.89;101218.34;5108087;28;20007;-81
2022/07/20 12:18:30;;;;;;;;;;;;;;;30.32;31.39;101213.16;5097161;28;20383;-80
2022/07/20 12:20:59;;;;;;;;;;;;;;;30.24;30.84;101214.53;5108093;28;19924;-81
2022/07/20 12:23:26;;;;;;;;;;;;;;;30.33;31.73;101209.31;5096073;28;19920;-81
2022/07/20 12:25:54;;;;;;;;;;;;;;;30.64;31.71;101226.69;5109906;28;19912;-82
2022/07/20 12:28:29;;;;;;;;;;;;;;;30.06;32.74;101225.13;5109465;28;19922;-87
2022/07/20 12:31:17;;;;;;;;;;;;;;;29.33;33.18;101214.19;5107677;28;20287;-82
2022/07/20 12:34:01;;;;;;;;;;;;;;;28.88;33.81;101218.44;5104035;28;19976;-83
2022/07/20 12:36:53;;;;;;;;;;;;;;;29.04;33.17;101202.75;5105794;28;19923;-82
2022/07/20 12:39:37;;;;;;;;;;;;;;;28.96;31.95;101197.72;5111586;28;19912;-81
2022/07/20 12:42:08;;;;;;;;;;;;;;;29.08;31.25;101195.59;5106289;28;19912;-82